Henry Post Army Air Field (Fort Sill) Fort Sill US
ICAO: KFSI
IATA: FSI
Category: Medium
Scheduled Services: No

Elevation: 1189 ft
TransAlt. 18000 ft.

Airport Communications:
FORT SILL APP/DEP:118.6
ATIS:135.425
CLNC DEL:121.7
POST GND:121.7
DUNCAN SCTR:118.6
PMSV METRO:37.52
PTD:123.05
POST TWR:124.95

KFSI Zoom In..

Runways:

(A) RW 17 length 5001 ft width 150 ft
---- / hdg 173

(B) RW 35 length 5001 ft width 150 ft
---- / hdg 353

Location; KFSI
Day. 22 / Time. 00.56 Zulu
* Altimeter: 30.05
* Temperature: 11° c. 51.8°f.
* Wind from: 030° Speed 12 kn.
Dewpoint: 11° c.
Visibility: 10 Statute Miles.
Clouds: Overcast 1300 ft.

KFSI 220056Z AUTO 03012KT 10SM OVC013 11/11 A3005 RMK AO2 SLP175 T01100110


Wind From 030°
Speed 12 kn.

  YouTube Music Video
 
jpsmedia.com for Web Design  worldairports.se 2018   terms of use